Hot Springs Village, Arkansas
Current Conditions -  °F | °C
As of 5:53 AM on Sunday 23 Nov 2014 (Local Time) from KHOT Reporting Station
Light Rain Light Rain  
Wind Chill: 58°   Ceiling: 500
Heat Index: 58°   Visibility: 6mi
Dew Point: 57°   Wind: 6mph
Humidity: 97%   Direction: 140°SE
Pressure: 29.65"   Gusts: NA
Location:  34.66°N, 93.05°W
Report Text: KHOT 231153Z AUTO 14005KT 6SM -RA BR OVC005 14/14 A2965 RMK AO2 RAB17 SLP036 P0004 60007 70011 T01440139 10161 20144 56017
Loading
Personal Weather Stations






























Interactive Weather Map New forecast layout! Learn more

10-Day Weather Forecast

Advertisements
Track Severe Weather on mobile